createdAt,value
2023-10-23T00:02:24.724Z,59.83
2023-10-23T00:04:52.905Z,60.01
2023-10-23T00:07:21.106Z,59.86
2023-10-23T00:09:49.203Z,59.76
2023-10-23T00:12:17.326Z,59.42
2023-10-23T00:14:45.629Z,59.13
2023-10-23T00:17:14.080Z,58.92
2023-10-23T00:19:42.192Z,58.75
2023-10-23T00:22:10.265Z,58.60
2023-10-23T00:24:39.184Z,58.43
2023-10-23T00:27:08.092Z,58.30
2023-10-23T00:29:36.623Z,58.25
2023-10-23T00:32:06.429Z,58.25
2023-10-23T00:34:34.526Z,58.18
2023-10-23T00:37:02.565Z,57.99
2023-10-23T00:39:30.924Z,58.12
2023-10-23T00:41:59.187Z,58.01
2023-10-23T00:44:29.057Z,57.97
2023-10-23T00:46:58.081Z,58.35
2023-10-23T00:49:26.451Z,58.14
2023-10-23T00:51:56.025Z,57.98
2023-10-23T00:54:25.072Z,58.01
2023-10-23T00:56:54.865Z,57.97
2023-10-23T00:59:23.540Z,57.94
2023-10-23T01:01:51.761Z,57.95
2023-10-23T01:04:20.901Z,57.92
2023-10-23T01:06:51.440Z,57.80
2023-10-23T01:09:20.036Z,57.83
2023-10-23T01:11:48.296Z,57.59
2023-10-23T01:14:16.609Z,57.88
2023-10-23T01:16:44.748Z,58.04
2023-10-23T01:19:13.149Z,58.01
2023-10-23T01:21:41.219Z,58.13
2023-10-23T01:24:12.512Z,57.98
2023-10-23T01:26:40.986Z,58.12
2023-10-23T01:29:09.293Z,58.54
2023-10-23T01:31:37.681Z,58.66
2023-10-23T01:34:07.534Z,58.46
2023-10-23T01:36:37.053Z,58.66
2023-10-23T01:39:05.852Z,58.61
2023-10-23T01:41:35.527Z,58.69
2023-10-23T01:44:03.762Z,58.64
2023-10-23T01:46:31.981Z,58.63
2023-10-23T01:49:00.450Z,58.40
2023-10-23T01:51:28.776Z,57.96
2023-10-23T01:53:57.493Z,57.45
2023-10-23T01:56:25.825Z,57.06
2023-10-23T01:58:54.282Z,56.60
2023-10-23T02:01:23.889Z,56.28
2023-10-23T02:03:52.236Z,56.08
2023-10-23T02:06:20.636Z,56.10
2023-10-23T02:08:48.920Z,56.08
2023-10-23T02:11:17.473Z,56.05
2023-10-23T02:13:45.936Z,56.09
2023-10-23T02:16:14.221Z,56.13
2023-10-23T02:18:42.518Z,56.27
2023-10-23T02:21:11.559Z,56.27
2023-10-23T02:23:55.596Z,56.24
2023-10-23T02:26:26.455Z,56.39
2023-10-23T02:28:54.734Z,56.54
2023-10-23T02:31:23.956Z,56.57
2023-10-23T02:33:52.490Z,56.59
2023-10-23T02:36:21.087Z,56.87
2023-10-23T02:38:49.437Z,56.84
2023-10-23T02:41:18.765Z,56.94
2023-10-23T02:43:48.301Z,57.18
2023-10-23T02:46:16.981Z,57.24
2023-10-23T02:48:45.158Z,57.59
2023-10-23T02:51:14.053Z,58.09
2023-10-23T02:53:42.364Z,58.74
2023-10-23T02:56:14.464Z,59.05
2023-10-23T02:58:42.912Z,58.86
2023-10-23T03:01:23.822Z,58.52
2023-10-23T03:03:52.960Z,58.49
2023-10-23T03:06:21.896Z,58.47
2023-10-23T03:08:50.125Z,58.41
2023-10-23T03:11:18.251Z,58.36
2023-10-23T03:13:47.299Z,58.47
2023-10-23T03:16:18.640Z,58.50
2023-10-23T03:18:46.880Z,58.83
2023-10-23T03:21:15.313Z,59.04
2023-10-23T03:23:43.417Z,59.23
2023-10-23T03:26:11.737Z,59.31
2023-10-23T03:28:39.850Z,59.71
2023-10-23T03:31:08.256Z,60.02
2023-10-23T03:33:36.673Z,60.18
2023-10-23T03:36:05.634Z,60.33
2023-10-23T03:38:33.854Z,60.41
2023-10-23T03:41:02.098Z,60.66
2023-10-23T03:43:30.744Z,60.82
2023-10-23T03:46:04.013Z,60.88
2023-10-23T03:48:35.878Z,61.00
2023-10-23T03:51:04.542Z,61.24
2023-10-23T03:53:32.843Z,61.18
2023-10-23T03:56:01.592Z,61.18
2023-10-23T03:58:30.354Z,61.15
2023-10-23T04:00:59.149Z,61.17
2023-10-23T04:03:27.427Z,61.30
2023-10-23T04:05:55.790Z,63.13
2023-10-23T04:08:23.906Z,63.32
2023-10-23T04:10:52.065Z,63.25
2023-10-23T04:13:22.791Z,63.18
2023-10-23T04:16:00.720Z,63.42
2023-10-23T04:18:29.428Z,63.52
2023-10-23T04:21:09.246Z,63.44
2023-10-23T04:23:38.642Z,63.44
2023-10-23T04:26:08.000Z,63.32
2023-10-23T04:28:38.125Z,63.42
2023-10-23T04:31:06.546Z,63.43
2023-10-23T04:33:35.307Z,63.48
2023-10-23T04:36:03.844Z,63.51
2023-10-23T04:38:32.652Z,63.52
2023-10-23T04:41:01.047Z,63.72
2023-10-23T04:43:29.334Z,63.72
2023-10-23T04:45:59.108Z,63.72
2023-10-23T04:48:27.413Z,63.96
2023-10-23T04:51:03.606Z,64.19
2023-10-23T04:53:31.681Z,64.15
2023-10-23T04:56:00.218Z,64.34
2023-10-23T04:58:30.926Z,64.56
2023-10-23T05:01:00.434Z,64.58
2023-10-23T05:03:29.472Z,64.87
2023-10-23T05:05:57.752Z,64.83
2023-10-23T05:08:25.851Z,65.04
2023-10-23T05:10:53.930Z,65.08
2023-10-23T05:13:22.542Z,64.98
2023-10-23T05:15:50.670Z,64.97
2023-10-23T05:18:18.839Z,65.11
2023-10-23T05:20:47.081Z,65.18
2023-10-23T05:23:15.683Z,65.39
2023-10-23T05:25:48.610Z,64.95
2023-10-23T05:28:16.968Z,64.61
2023-10-23T05:30:45.786Z,64.60
2023-10-23T05:33:14.077Z,64.61
2023-10-23T05:35:42.147Z,64.48
2023-10-23T05:38:10.409Z,64.40
2023-10-23T05:40:39.318Z,64.27
2023-10-23T05:43:07.792Z,64.26
2023-10-23T05:45:39.049Z,64.29
2023-10-23T05:48:07.327Z,64.24
2023-10-23T05:50:35.606Z,64.01
2023-10-23T05:53:04.002Z,63.94
2023-10-23T05:55:35.840Z,63.72
2023-10-23T05:58:04.334Z,63.73
2023-10-23T06:00:32.544Z,63.70
2023-10-23T06:03:00.717Z,63.72
2023-10-23T06:05:29.199Z,63.61
2023-10-23T06:07:57.521Z,63.49
2023-10-23T06:10:25.877Z,63.50
2023-10-23T06:12:54.243Z,63.52
2023-10-23T06:15:22.412Z,63.42
2023-10-23T06:17:50.797Z,63.24
2023-10-23T06:20:18.916Z,63.39
2023-10-23T06:22:47.328Z,63.20
2023-10-23T06:25:15.989Z,63.04
2023-10-23T06:27:44.491Z,62.98
2023-10-23T06:30:13.481Z,62.84
2023-10-23T06:32:41.768Z,63.07
2023-10-23T06:35:10.132Z,62.98
2023-10-23T06:37:38.793Z,63.00
2023-10-23T06:40:08.330Z,63.16
2023-10-23T06:42:36.446Z,63.06
2023-10-23T06:45:05.141Z,63.29
2023-10-23T06:47:34.015Z,63.30
2023-10-23T06:50:04.240Z,63.30
2023-10-23T06:52:33.381Z,63.25
2023-10-23T06:55:01.693Z,63.27
2023-10-23T06:57:30.145Z,63.23
2023-10-23T06:59:58.273Z,63.06
2023-10-23T07:02:26.411Z,63.13
2023-10-23T07:04:54.803Z,62.95
2023-10-23T07:07:30.205Z,62.91
2023-10-23T07:10:01.830Z,62.64
2023-10-23T07:12:30.358Z,62.74
2023-10-23T07:14:58.725Z,62.45
2023-10-23T07:17:26.973Z,62.03
2023-10-23T07:19:55.432Z,61.11
2023-10-23T07:22:23.581Z,60.68
2023-10-23T07:24:55.724Z,60.60
2023-10-23T07:27:24.028Z,60.55
2023-10-23T07:29:53.059Z,60.56
2023-10-23T07:32:21.427Z,60.50
2023-10-23T07:34:49.555Z,60.48
2023-10-23T07:37:19.656Z,60.32
2023-10-23T07:39:49.281Z,60.07
2023-10-23T07:42:17.760Z,59.91
2023-10-23T07:44:46.609Z,59.72
2023-10-23T07:47:14.856Z,59.53
2023-10-23T07:49:44.986Z,59.17
2023-10-23T07:52:13.559Z,58.39
2023-10-23T07:54:41.672Z,58.10
2023-10-23T07:57:10.447Z,57.72
2023-10-23T07:59:38.869Z,57.69
2023-10-23T08:02:07.293Z,57.72
2023-10-23T08:04:35.686Z,57.18
2023-10-23T08:07:04.147Z,56.92
2023-10-23T08:09:32.591Z,56.80
2023-10-23T08:12:00.689Z,56.30
2023-10-23T08:14:28.740Z,56.42
2023-10-23T08:16:56.991Z,56.32
2023-10-23T08:19:25.568Z,55.95
2023-10-23T08:21:53.881Z,55.50
2023-10-23T08:24:22.327Z,54.88
2023-10-23T08:26:51.618Z,54.74
2023-10-23T08:29:19.729Z,53.69
2023-10-23T08:31:48.360Z,53.57
2023-10-23T08:34:16.839Z,53.80
2023-10-23T08:36:45.085Z,53.08
2023-10-23T08:39:13.517Z,52.63
2023-10-23T08:41:42.988Z,51.75
2023-10-23T08:44:11.693Z,51.96
2023-10-23T08:46:41.541Z,51.49
2023-10-23T08:49:10.211Z,51.33
2023-10-23T08:51:44.732Z,51.00
2023-10-23T08:54:20.438Z,50.35
2023-10-23T08:56:58.276Z,48.99
2023-10-23T08:59:26.649Z,47.09
2023-10-23T09:02:01.948Z,45.77
2023-10-23T09:04:30.821Z,44.75
2023-10-23T09:07:00.936Z,43.32
2023-10-23T09:09:30.078Z,43.40
2023-10-23T09:11:59.043Z,42.69
2023-10-23T09:14:37.304Z,39.71
2023-10-23T09:17:06.080Z,39.83
2023-10-23T09:19:38.156Z,39.82
2023-10-23T09:22:08.464Z,38.36
2023-10-23T09:24:38.574Z,37.54
2023-10-23T09:27:07.171Z,37.50
2023-10-23T09:29:37.550Z,36.80
2023-10-23T09:32:07.136Z,35.49
2023-10-23T09:34:41.492Z,33.80
2023-10-23T09:37:10.900Z,33.15
2023-10-23T09:39:41.264Z,34.62
2023-10-23T09:42:10.565Z,32.21
2023-10-23T09:44:40.765Z,33.16
2023-10-23T09:47:10.716Z,30.52
2023-10-23T09:49:43.822Z,30.01
2023-10-23T09:52:13.081Z,31.02
2023-10-23T09:54:44.417Z,30.53
2023-10-23T09:57:15.843Z,29.25
2023-10-23T09:59:53.443Z,29.28
2023-10-23T10:02:26.057Z,28.06
2023-10-23T10:05:06.392Z,27.91
2023-10-23T10:07:37.228Z,27.16
2023-10-23T10:10:06.984Z,27.13
2023-10-23T10:12:39.227Z,26.45
2023-10-23T10:15:13.452Z,26.32
2023-10-23T10:17:45.227Z,24.25
2023-10-23T10:20:14.013Z,24.29
2023-10-23T10:22:44.924Z,24.71
2023-10-23T10:25:14.799Z,25.39
2023-10-23T10:27:43.152Z,24.54
2023-10-23T10:30:42.782Z,24.09
2023-10-23T10:34:25.292Z,24.16
2023-10-23T10:36:12.432Z,23.42
2023-10-23T10:38:42.358Z,23.98
2023-10-23T10:41:20.085Z,23.85
2023-10-23T10:43:53.074Z,23.18
2023-10-23T10:46:28.049Z,22.69
2023-10-23T10:48:57.231Z,22.35
2023-10-23T10:51:27.887Z,20.80
2023-10-23T10:53:59.573Z,20.92
2023-10-23T10:56:28.489Z,21.47
2023-10-23T10:59:03.830Z,21.39
2023-10-23T11:01:33.398Z,21.30
2023-10-23T11:04:01.850Z,20.92
2023-10-23T11:06:31.252Z,21.04
2023-10-23T11:09:00.604Z,20.69
2023-10-23T11:11:29.649Z,20.55
2023-10-23T11:14:03.644Z,20.42
2023-10-23T11:16:32.301Z,20.33
2023-10-23T11:19:02.250Z,19.69
2023-10-23T11:21:30.534Z,20.28
2023-10-23T11:23:58.818Z,20.81
2023-10-23T11:26:27.490Z,21.43
2023-10-23T11:28:55.867Z,21.74
2023-10-23T11:31:24.144Z,21.89
2023-10-23T11:33:56.227Z,21.53
2023-10-23T11:36:28.120Z,21.57
2023-10-23T11:38:58.178Z,21.85
2023-10-23T11:41:28.924Z,22.28
2023-10-23T11:44:02.267Z,22.54
2023-10-23T11:46:31.177Z,22.78
2023-10-23T11:49:02.434Z,22.69
2023-10-23T11:51:31.227Z,23.20
2023-10-23T11:54:00.616Z,23.71
2023-10-23T11:56:30.038Z,24.12
2023-10-23T11:58:58.500Z,24.56
2023-10-23T12:01:26.749Z,24.61
2023-10-23T12:03:54.960Z,24.88
2023-10-23T12:06:23.252Z,25.23
2023-10-23T12:08:51.808Z,25.40
2023-10-23T12:11:20.274Z,25.87
2023-10-23T12:13:48.457Z,25.69
2023-10-23T12:16:16.794Z,25.55
2023-10-23T12:18:45.239Z,25.40
2023-10-23T12:21:15.052Z,25.28
2023-10-23T12:23:43.617Z,25.29
2023-10-23T12:26:12.539Z,25.16
2023-10-23T12:28:41.173Z,24.63
2023-10-23T12:31:22.724Z,24.92
2023-10-23T12:33:53.386Z,24.59
2023-10-23T12:36:22.450Z,24.24
2023-10-23T12:38:50.513Z,24.41
2023-10-23T12:41:19.436Z,23.47
2023-10-23T12:43:49.021Z,23.27
2023-10-23T12:46:18.522Z,23.36
2023-10-23T12:48:46.880Z,22.54
2023-10-23T12:51:16.656Z,22.01
2023-10-23T12:53:45.233Z,22.37
2023-10-23T12:56:13.741Z,21.92
2023-10-23T12:58:42.660Z,21.66
2023-10-23T13:01:11.002Z,21.44
2023-10-23T13:03:39.361Z,20.58
2023-10-23T13:06:08.883Z,20.48
2023-10-23T13:08:37.709Z,20.22
2023-10-23T13:11:06.700Z,19.72
2023-10-23T13:13:34.774Z,18.92
2023-10-23T13:16:03.212Z,19.10
2023-10-23T13:18:33.423Z,19.32
2023-10-23T13:21:33.564Z,19.01
2023-10-23T13:23:51.368Z,19.45
2023-10-23T13:26:19.792Z,19.80
2023-10-23T13:28:49.497Z,19.86
2023-10-23T13:31:18.494Z,20.26
2023-10-23T13:33:47.336Z,20.93
2023-10-23T13:36:15.529Z,21.86
2023-10-23T13:38:43.806Z,22.85
2023-10-23T13:41:12.169Z,23.84
2023-10-23T13:43:40.864Z,24.57
2023-10-23T13:46:09.185Z,25.73
2023-10-23T13:48:37.622Z,25.86
2023-10-23T13:51:05.799Z,24.97
2023-10-23T13:53:34.534Z,24.47
2023-10-23T13:56:03.048Z,23.47
2023-10-23T13:58:31.293Z,22.56
2023-10-23T14:01:00.291Z,21.80
2023-10-23T14:03:29.477Z,21.49
2023-10-23T14:05:59.297Z,21.76
2023-10-23T14:08:32.677Z,21.69
2023-10-23T14:11:57.216Z,22.64
2023-10-23T14:14:04.014Z,23.52
2023-10-23T14:16:32.462Z,23.76
2023-10-23T14:19:00.807Z,24.57
2023-10-23T14:21:29.781Z,24.74
2023-10-23T14:23:57.891Z,24.87
2023-10-23T14:26:27.294Z,25.76
2023-10-23T14:28:57.106Z,26.05
2023-10-23T14:31:25.461Z,26.44
2023-10-23T14:33:55.195Z,26.87
2023-10-23T14:36:24.514Z,27.12
2023-10-23T14:38:52.875Z,27.44
2023-10-23T14:41:21.521Z,27.84
2023-10-23T14:43:49.666Z,28.06
2023-10-23T14:46:18.168Z,28.78
2023-10-23T14:48:48.206Z,30.00
2023-10-23T14:51:16.601Z,31.08
2023-10-23T14:53:45.212Z,31.72
2023-10-23T14:56:14.054Z,32.24
2023-10-23T14:58:42.269Z,33.22
2023-10-23T15:01:10.543Z,33.71
2023-10-23T15:03:43.385Z,33.86
2023-10-23T15:06:13.072Z,34.52
2023-10-23T15:08:42.692Z,34.64
2023-10-23T15:11:15.200Z,34.74
2023-10-23T15:13:43.641Z,35.42
2023-10-23T15:16:12.098Z,35.55
2023-10-23T15:18:40.871Z,35.79
2023-10-23T15:21:09.466Z,36.13
2023-10-23T15:23:37.884Z,36.61
2023-10-23T15:26:06.191Z,37.17
2023-10-23T15:28:37.022Z,38.23
2023-10-23T15:31:07.057Z,38.77
2023-10-23T15:33:37.090Z,39.17
2023-10-23T15:36:06.822Z,39.86
2023-10-23T15:38:36.549Z,40.80
2023-10-23T15:41:08.072Z,41.14
2023-10-23T15:43:37.990Z,41.44
2023-10-23T15:46:12.635Z,41.75
2023-10-23T15:48:42.387Z,41.98
2023-10-23T15:51:11.790Z,42.33
2023-10-23T15:53:40.504Z,42.82
2023-10-23T15:56:09.317Z,42.93
2023-10-23T15:58:37.817Z,42.96
2023-10-23T16:01:06.698Z,43.16
2023-10-23T16:03:36.037Z,43.35
2023-10-23T16:06:13.812Z,43.47
2023-10-23T16:08:41.947Z,43.28
2023-10-23T16:11:10.272Z,43.55
2023-10-23T16:13:39.516Z,43.54
2023-10-23T16:16:16.357Z,43.67
2023-10-23T16:18:46.805Z,43.79
2023-10-23T16:21:16.508Z,44.11
2023-10-23T16:23:45.050Z,44.37
2023-10-23T16:26:13.491Z,44.81
2023-10-23T16:28:42.029Z,45.05
2023-10-23T16:31:15.205Z,45.62
2023-10-23T16:33:43.710Z,45.66
2023-10-23T16:36:12.294Z,45.78
2023-10-23T16:38:41.391Z,45.93
2023-10-23T16:41:09.577Z,46.22
2023-10-23T16:43:41.579Z,46.42
2023-10-23T16:46:12.816Z,46.36
2023-10-23T16:48:42.938Z,46.48
2023-10-23T16:51:11.611Z,46.78
2023-10-23T16:53:40.486Z,46.82
2023-10-23T16:56:08.774Z,46.91
2023-10-23T16:58:39.578Z,47.23
2023-10-23T17:01:11.156Z,47.20
2023-10-23T17:03:41.341Z,47.61
2023-10-23T17:06:10.541Z,47.72
2023-10-23T17:08:38.809Z,47.76
2023-10-23T17:11:08.727Z,47.86
2023-10-23T17:13:37.921Z,48.00
2023-10-23T17:16:07.026Z,48.38
2023-10-23T17:18:35.166Z,48.75
2023-10-23T17:21:03.837Z,48.80
2023-10-23T17:23:33.099Z,49.14
2023-10-23T17:26:06.062Z,49.26
2023-10-23T17:28:36.218Z,49.33
2023-10-23T17:31:08.105Z,49.70
2023-10-23T17:33:36.968Z,49.98
2023-10-23T17:36:06.200Z,50.09
2023-10-23T17:38:38.145Z,50.25
2023-10-23T17:41:15.881Z,50.74
2023-10-23T17:43:44.911Z,51.09
2023-10-23T17:46:13.532Z,51.23
2023-10-23T17:48:41.798Z,51.48
2023-10-23T17:51:11.948Z,51.51
2023-10-23T17:53:53.680Z,51.82
2023-10-23T17:56:29.753Z,52.14
2023-10-23T17:58:59.078Z,52.63
2023-10-23T18:01:30.387Z,52.83
2023-10-23T18:03:59.777Z,52.62
2023-10-23T18:06:28.114Z,52.87
2023-10-23T18:08:57.997Z,53.16
2023-10-23T18:11:26.341Z,53.35
2023-10-23T18:13:54.468Z,53.44
2023-10-23T18:16:24.373Z,53.46
2023-10-23T18:18:52.524Z,53.57
2023-10-23T18:21:20.726Z,53.74
2023-10-23T18:23:49.098Z,53.97
2023-10-23T18:26:17.932Z,53.85
2023-10-23T18:28:46.125Z,53.75
2023-10-23T18:31:15.263Z,53.95
2023-10-23T18:33:46.817Z,54.40
2023-10-23T18:36:19.452Z,54.25
2023-10-23T18:38:48.238Z,54.43
2023-10-23T18:41:36.672Z,54.99
2023-10-23T18:44:05.710Z,55.15
2023-10-23T18:46:36.058Z,55.38
2023-10-23T18:49:05.272Z,55.39
2023-10-23T18:51:33.821Z,55.49
2023-10-23T18:54:02.538Z,55.57
2023-10-23T18:56:32.473Z,55.66
2023-10-23T18:59:00.830Z,55.80
2023-10-23T19:01:29.266Z,55.82
2023-10-23T19:04:00.501Z,55.89
2023-10-23T19:06:30.623Z,55.99
2023-10-23T19:09:03.768Z,56.10
2023-10-23T19:11:32.390Z,56.19
2023-10-23T19:14:01.948Z,56.44
2023-10-23T19:16:30.058Z,56.33
2023-10-23T19:19:00.196Z,56.61
2023-10-23T19:21:33.433Z,56.68
2023-10-23T19:24:02.614Z,56.91
2023-10-23T19:26:30.951Z,57.12
2023-10-23T19:28:59.077Z,57.32
2023-10-23T19:31:28.373Z,57.39
2023-10-23T19:33:57.251Z,57.71
2023-10-23T19:36:26.261Z,57.82
2023-10-23T19:38:55.264Z,57.69
2023-10-23T19:41:35.169Z,57.83
2023-10-23T19:44:04.441Z,58.12
2023-10-23T19:46:33.047Z,58.19
2023-10-23T19:49:19.276Z,58.27
2023-10-23T19:52:10.139Z,58.36
2023-10-23T19:55:04.639Z,58.40
2023-10-23T19:58:03.016Z,58.46
2023-10-23T20:00:33.655Z,59.01
2023-10-23T20:03:01.915Z,58.65
2023-10-23T20:05:32.156Z,58.63
2023-10-23T20:08:02.104Z,58.75
2023-10-23T20:10:31.587Z,58.60
2023-10-23T20:13:00.322Z,58.64
2023-10-23T20:15:30.570Z,58.80
2023-10-23T20:17:59.203Z,58.94
2023-10-23T20:20:27.780Z,58.83
2023-10-23T20:22:56.318Z,58.81
2023-10-23T20:25:24.790Z,58.83
2023-10-23T20:27:53.267Z,58.93
2023-10-23T20:30:21.868Z,58.98
2023-10-23T20:32:50.648Z,59.08
2023-10-23T20:35:19.292Z,59.98
2023-10-23T20:37:47.328Z,59.81
2023-10-23T20:40:15.853Z,59.75
2023-10-23T20:42:44.070Z,60.02
2023-10-23T20:45:14.413Z,60.10
2023-10-23T20:47:43.354Z,59.98
2023-10-23T20:50:11.764Z,60.03
2023-10-23T20:52:39.945Z,60.13
2023-10-23T20:55:08.725Z,60.22
2023-10-23T20:57:37.389Z,60.28
2023-10-23T21:00:07.678Z,60.41
2023-10-23T21:02:37.316Z,60.32
2023-10-23T21:05:06.661Z,60.81
2023-10-23T21:07:35.660Z,60.81
2023-10-23T21:10:04.643Z,60.78
2023-10-23T21:12:32.842Z,60.78
2023-10-23T21:15:00.902Z,60.88
2023-10-23T21:17:29.596Z,60.99
2023-10-23T21:19:57.974Z,61.29
2023-10-23T21:22:26.328Z,61.45
2023-10-23T21:24:54.460Z,61.39
2023-10-23T21:27:22.840Z,61.63
2023-10-23T21:29:51.170Z,61.80
2023-10-23T21:32:19.279Z,61.94
2023-10-23T21:34:47.389Z,62.09
2023-10-23T21:37:15.536Z,62.17
2023-10-23T21:39:43.757Z,62.17
2023-10-23T21:42:11.863Z,62.31
2023-10-23T21:44:40.407Z,62.35
2023-10-23T21:47:08.741Z,62.60
2023-10-23T21:49:37.496Z,62.88
2023-10-23T21:52:06.981Z,62.81
2023-10-23T21:54:35.819Z,62.83
2023-10-23T21:57:20.586Z,63.22
2023-10-23T21:59:52.001Z,63.16
2023-10-23T22:02:20.920Z,63.15
2023-10-23T22:04:49.487Z,63.17
2023-10-23T22:07:18.359Z,63.25
2023-10-23T22:09:46.942Z,63.53
2023-10-23T22:12:16.027Z,63.81
2023-10-23T22:14:44.727Z,64.59
2023-10-23T22:17:13.075Z,64.53
2023-10-23T22:19:41.785Z,64.53
2023-10-23T22:22:10.050Z,64.78
2023-10-23T22:24:38.466Z,64.67
2023-10-23T22:27:06.706Z,64.84
2023-10-23T22:29:35.092Z,65.01
2023-10-23T22:32:05.133Z,65.19
2023-10-23T22:34:33.582Z,65.06
2023-10-23T22:37:55.125Z,64.89
2023-10-23T22:39:50.113Z,65.28
2023-10-23T22:42:18.416Z,65.24
2023-10-23T22:44:46.433Z,65.23
2023-10-23T22:47:15.188Z,65.33
2023-10-23T22:49:44.420Z,65.58
2023-10-23T22:52:13.250Z,65.86
2023-10-23T22:54:42.457Z,65.84
2023-10-23T22:57:13.331Z,65.70
2023-10-23T22:59:43.924Z,65.71
2023-10-23T23:02:14.459Z,65.83
2023-10-23T23:04:43.271Z,66.31
2023-10-23T23:07:12.692Z,66.58
2023-10-23T23:09:41.315Z,66.42
2023-10-23T23:12:10.347Z,66.57
2023-10-23T23:14:39.117Z,66.65
2023-10-23T23:17:08.311Z,66.65
2023-10-23T23:19:40.329Z,66.73
2023-10-23T23:22:10.252Z,66.62
2023-10-23T23:24:38.817Z,66.73
2023-10-23T23:27:07.418Z,66.59
2023-10-23T23:29:36.106Z,66.66
2023-10-23T23:32:05.015Z,66.70
2023-10-23T23:34:33.300Z,66.70
2023-10-23T23:37:01.849Z,67.13
2023-10-23T23:39:30.097Z,67.47
2023-10-23T23:41:58.730Z,67.42
2023-10-23T23:44:27.210Z,67.33
2023-10-23T23:46:57.641Z,67.32
2023-10-23T23:49:28.456Z,67.48
2023-10-23T23:51:56.853Z,67.44
2023-10-23T23:54:24.985Z,67.39
2023-10-23T23:56:53.553Z,67.51
2023-10-23T23:59:22.186Z,67.60
